Mckinley Sea — WDE5024 — position and weather

sailwx.info

Track history (hours):
 
Tides and Currents Weather Stations Pressure Air Temp Water Temp Dewpoint Dewpoint Depression Visibility Wind Speed Wind Dir Waves Ship Positions

Mckinley Sea

Owner: Kirby Offshore Marine, LLC, Staten Island, NY. More information available from US FCC via Universal Licensing System and Coast Guard Vessel Documentation Center.

Last reported at 2016-Jul-24 20:16 UTC. Time now 2016-Jul-27 03:50 UTC.
Position N 42°45' W 070°02'.

Length 41 m; draft 7 m.

Type: . MMSI: 367360980.

Date/timePositionNaut miles runAvg speedWind from/ knotsBaromVisibWave heightAir tempDewpointWater temp
2016-Jul-24 20:16N 42°45' W 070°02'13 7.5
2016-Jul-24 18:28N 42°33' W 070°09'7 7.8
2016-Jul-24 17:33N 42°27' W 070°13'201 6.3
2016-Jul-23 09:33N 40°29' W 073°51'8 8.3
2016-Jul-23 08:32N 40°32' W 074°01'8 7.8
2016-Jul-23 07:33N 40°39' W 074°06'5 1.7
2016-Jul-23 04:32N 40°36' W 074°12'1 0.2
2016-Jul-22 21:26N 40°37' W 074°12'2 0.7
2016-Jul-22 18:27N 40°38' W 074°10'0 0.0
2016-Jul-22 16:05N 40°38' W 074°10'3 5.0
2016-Jul-22 15:29N 40°36' W 074°12'2 2.5
2016-Jul-22 14:32N 40°38' W 074°12'1 0.3
2016-Jul-22 10:18N 40°38' W 074°10'4 0.6
2016-Jul-22 04:23N 40°35' W 074°12'5 1.2
2016-Jul-22 00:08N 40°30' W 074°10'3 0.2
2016-Jul-21 12:32N 40°29' W 074°07'0 0.0
2016-Jul-21 11:32N 40°29' W 074°07'1 0.0
2016-Jul-19 13:13N 40°29' W 074°06'4 5.5
2016-Jul-19 12:33N 40°32' W 074°02'8 7.8
2016-Jul-19 11:34N 40°39' W 074°03'0 0.1
2016-Jul-19 10:32N 40°39' W 074°02'0 0.1
2016-Jul-19 09:32N 40°39' W 074°02'0 0.1
2016-Jul-19 08:32N 40°39' W 074°02'0 0.0
2016-Jul-19 07:32N 40°39' W 074°02'0 0.0
2016-Jul-19 04:32N 40°39' W 074°02'0 0.0
2016-Jul-19 03:32N 40°39' W 074°02'0 0.2
2016-Jul-19 02:32N 40°39' W 074°02'0 0.0
2016-Jul-19 01:32N 40°39' W 074°02'0 0.0
2016-Jul-19 00:32N 40°39' W 074°02'0 0.1
2016-Jul-18 23:29N 40°39' W 074°02'0 0.0
2016-Jul-18 22:32N 40°39' W 074°02'0 0.0
2016-Jul-18 21:32N 40°39' W 074°02'0 0.0
2016-Jul-18 20:32N 40°39' W 074°02'5 5.4
2016-Jul-18 19:33N 40°38' W 074°09'0 0.2
2016-Jul-18 16:27N 40°38' W 074°10'6 6.3
2016-Jul-18 15:33N 40°39' W 074°02'2 0.5
2016-Jul-18 10:33N 40°39' W 074°06'3 2.6
2016-Jul-18 09:33N 40°39' W 074°02'0 0.2
2016-Jul-18 08:33N 40°39' W 074°02'0 0.0
2016-Jul-18 07:33N 40°39' W 074°02'0 0.0
2016-Jul-18 06:33N 40°39' W 074°02'0 0.0
2016-Jul-18 05:33N 40°39' W 074°02'0 0.0
2016-Jul-18 04:33N 40°39' W 074°02'0 0.0
2016-Jul-18 03:29N 40°39' W 074°02'0 0.1
2016-Jul-18 02:32N 40°39' W 074°02'0 0.2
2016-Jul-18 01:32N 40°39' W 074°02'0 0.0
2016-Jul-18 00:32N 40°39' W 074°02'0 0.0
2016-Jul-17 23:33N 40°39' W 074°02'0 0.0
2016-Jul-17 22:32N 40°39' W 074°02'0 0.1
2016-Jul-17 21:32N 40°39' W 074°02'0 0.1
2016-Jul-17 20:29N 40°39' W 074°03'0 0.1
2016-Jul-17 19:32N 40°39' W 074°02'0 0.1
2016-Jul-17 18:29N 40°39' W 074°02'0 0.0
2016-Jul-17 17:32N 40°39' W 074°02'0 0.0
2016-Jul-17 16:32N 40°39' W 074°02'0 0.0
2016-Jul-17 15:32N 40°39' W 074°03'0 0.0
2016-Jul-17 14:29N 40°39' W 074°03'0 0.0
2016-Jul-17 13:32N 40°39' W 074°02'0 0.2
2016-Jul-17 12:29N 40°39' W 074°02'0 0.0
2016-Jul-17 11:32N 40°39' W 074°02'0 0.0
2016-Jul-17 10:32N 40°39' W 074°02'0 0.0
2016-Jul-17 09:23N 40°39' W 074°02'0 0.0
2016-Jul-17 08:29N 40°39' W 074°02'0 0.2
2016-Jul-17 07:29N 40°39' W 074°02'0 0.0
2016-Jul-17 06:32N 40°39' W 074°02'0 0.0
2016-Jul-17 04:32N 40°39' W 074°03'0 0.0
2016-Jul-17 03:32N 40°39' W 074°02'0 0.0
2016-Jul-17 02:32N 40°39' W 074°02'2 2.3
2016-Jul-17 01:31N 40°39' W 074°05'0 0.0
2016-Jul-17 00:31N 40°39' W 074°05'0 0.0
2016-Jul-16 23:31N 40°39' W 074°05'0 0.0
2016-Jul-16 22:28N 40°39' W 074°05'2 2.5
2016-Jul-16 21:33N 40°39' W 074°02'0 0.1
2016-Jul-16 20:34N 40°40' W 074°02'6 5.7
2016-Jul-16 19:33N 40°39' W 074°10'6 5.7
2016-Jul-16 18:33N 40°39' W 074°02'6 6.3
2016-Jul-16 17:33N 40°33' W 074°01'8 8.4
2016-Jul-16 16:33N 40°29' W 073°52'178 8.5
2016-Jul-15 19:30N 42°02' W 070°29'9 9.6
2016-Jul-15 18:33N 42°11' W 070°32'9 9.5
2016-Jul-15 17:33N 42°18' W 070°41'9 8.8
2016-Jul-15 16:33N 42°23' W 070°50'8 8.4
2016-Jul-15 15:33N 42°21' W 071°02'3 1.4
2016-Jul-15 13:28N 42°24' W 071°01'0 0.0
2016-Jul-15 12:31N 42°24' W 071°01'0 0.0
2016-Jul-15 11:31N 42°24' W 071°01'0 0.0
2016-Jul-15 10:25N 42°24' W 071°01'0 0.0
2016-Jul-15 09:25N 42°24' W 071°01'0 0.0
2016-Jul-15 08:25N 42°24' W 071°01'0 0.0
2016-Jul-15 07:31N 42°24' W 071°01'0 0.0
2016-Jul-15 06:13N 42°24' W 071°01'0 0.0
2016-Jul-15 05:25N 42°24' W 071°01'0 0.0
2016-Jul-15 04:33N 42°24' W 071°01'0 0.0
2016-Jul-15 03:32N 42°24' W 071°01'0 0.0
2016-Jul-15 02:33N 42°24' W 071°01'0 0.0
2016-Jul-15 01:33N 42°24' W 071°01'0 0.0
2016-Jul-15 00:33N 42°24' W 071°01'0 0.2
2016-Jul-14 23:33N 42°24' W 071°01'3 2.9
2016-Jul-14 22:33N 42°21' W 071°01'7 7.4
2016-Jul-14 21:33N 42°24' W 070°52'8 8.1
2016-Jul-14 20:33N 42°28' W 070°43'  
Track history (hours):
 
Tides and Currents Weather Stations Pressure Air Temp Water Temp Dewpoint Dewpoint Depression Visibility Wind Speed Wind Dir Waves Ship Positions

Mckinley Sea

Owner: Kirby Offshore Marine, LLC, Staten Island, NY. More information available from US FCC via Universal Licensing System and Coast Guard Vessel Documentation Center.

Last reported at 2016-Jul-24 20:16 UTC. Time now 2016-Jul-27 03:50 UTC.
Position N 42°45' W 070°02'.

Length 41 m; draft 7 m.

Type: . MMSI: 367360980.

Date/timePositionNaut miles runAvg speedWind from/ knotsBaromVisibWave heightAir tempDewpointWater temp
2016-Jul-24 20:16N 42°45' W 070°02'13 7.5
2016-Jul-24 18:28N 42°33' W 070°09'7 7.8
2016-Jul-24 17:33N 42°27' W 070°13'201 6.3
2016-Jul-23 09:33N 40°29' W 073°51'8 8.3
2016-Jul-23 08:32N 40°32' W 074°01'8 7.8
2016-Jul-23 07:33N 40°39' W 074°06'5 1.7
2016-Jul-23 04:32N 40°36' W 074°12'1 0.2
2016-Jul-22 21:26N 40°37' W 074°12'2 0.7
2016-Jul-22 18:27N 40°38' W 074°10'0 0.0
2016-Jul-22 16:05N 40°38' W 074°10'3 5.0
2016-Jul-22 15:29N 40°36' W 074°12'2 2.5
2016-Jul-22 14:32N 40°38' W 074°12'1 0.3
2016-Jul-22 10:18N 40°38' W 074°10'4 0.6
2016-Jul-22 04:23N 40°35' W 074°12'5 1.2
2016-Jul-22 00:08N 40°30' W 074°10'3 0.2
2016-Jul-21 12:32N 40°29' W 074°07'0 0.0
2016-Jul-21 11:32N 40°29' W 074°07'1 0.0
2016-Jul-19 13:13N 40°29' W 074°06'4 5.5
2016-Jul-19 12:33N 40°32' W 074°02'8 7.8
2016-Jul-19 11:34N 40°39' W 074°03'0 0.1
2016-Jul-19 10:32N 40°39' W 074°02'0 0.1
2016-Jul-19 09:32N 40°39' W 074°02'0 0.1
2016-Jul-19 08:32N 40°39' W 074°02'0 0.0
2016-Jul-19 07:32N 40°39' W 074°02'0 0.0
2016-Jul-19 04:32N 40°39' W 074°02'0 0.0
2016-Jul-19 03:32N 40°39' W 074°02'0 0.2
2016-Jul-19 02:32N 40°39' W 074°02'0 0.0
2016-Jul-19 01:32N 40°39' W 074°02'0 0.0
2016-Jul-19 00:32N 40°39' W 074°02'0 0.1
2016-Jul-18 23:29N 40°39' W 074°02'0 0.0
2016-Jul-18 22:32N 40°39' W 074°02'0 0.0
2016-Jul-18 21:32N 40°39' W 074°02'0 0.0
2016-Jul-18 20:32N 40°39' W 074°02'5 5.4
2016-Jul-18 19:33N 40°38' W 074°09'0 0.2
2016-Jul-18 16:27N 40°38' W 074°10'6 6.3
2016-Jul-18 15:33N 40°39' W 074°02'2 0.5
2016-Jul-18 10:33N 40°39' W 074°06'3 2.6
2016-Jul-18 09:33N 40°39' W 074°02'0 0.2
2016-Jul-18 08:33N 40°39' W 074°02'0 0.0
2016-Jul-18 07:33N 40°39' W 074°02'0 0.0
2016-Jul-18 06:33N 40°39' W 074°02'0 0.0
2016-Jul-18 05:33N 40°39' W 074°02'0 0.0
2016-Jul-18 04:33N 40°39' W 074°02'0 0.0
2016-Jul-18 03:29N 40°39' W 074°02'0 0.1
2016-Jul-18 02:32N 40°39' W 074°02'0 0.2
2016-Jul-18 01:32N 40°39' W 074°02'0 0.0
2016-Jul-18 00:32N 40°39' W 074°02'0 0.0
2016-Jul-17 23:33N 40°39' W 074°02'0 0.0
2016-Jul-17 22:32N 40°39' W 074°02'0 0.1
2016-Jul-17 21:32N 40°39' W 074°02'0 0.1
2016-Jul-17 20:29N 40°39' W 074°03'0 0.1
2016-Jul-17 19:32N 40°39' W 074°02'0 0.1
2016-Jul-17 18:29N 40°39' W 074°02'0 0.0
2016-Jul-17 17:32N 40°39' W 074°02'0 0.0
2016-Jul-17 16:32N 40°39' W 074°02'0 0.0
2016-Jul-17 15:32N 40°39' W 074°03'0 0.0
2016-Jul-17 14:29N 40°39' W 074°03'0 0.0
2016-Jul-17 13:32N 40°39' W 074°02'0 0.2
2016-Jul-17 12:29N 40°39' W 074°02'0 0.0
2016-Jul-17 11:32N 40°39' W 074°02'0 0.0
2016-Jul-17 10:32N 40°39' W 074°02'0 0.0
2016-Jul-17 09:23N 40°39' W 074°02'0 0.0
2016-Jul-17 08:29N 40°39' W 074°02'0 0.2
2016-Jul-17 07:29N 40°39' W 074°02'0 0.0
2016-Jul-17 06:32N 40°39' W 074°02'0 0.0
2016-Jul-17 04:32N 40°39' W 074°03'0 0.0
2016-Jul-17 03:32N 40°39' W 074°02'0 0.0
2016-Jul-17 02:32N 40°39' W 074°02'2 2.3
2016-Jul-17 01:31N 40°39' W 074°05'0 0.0
2016-Jul-17 00:31N 40°39' W 074°05'0 0.0
2016-Jul-16 23:31N 40°39' W 074°05'0 0.0
2016-Jul-16 22:28N 40°39' W 074°05'2 2.5
2016-Jul-16 21:33N 40°39' W 074°02'0 0.1
2016-Jul-16 20:34N 40°40' W 074°02'6 5.7
2016-Jul-16 19:33N 40°39' W 074°10'6 5.7
2016-Jul-16 18:33N 40°39' W 074°02'6 6.3
2016-Jul-16 17:33N 40°33' W 074°01'8 8.4
2016-Jul-16 16:33N 40°29' W 073°52'178 8.5
2016-Jul-15 19:30N 42°02' W 070°29'9 9.6
2016-Jul-15 18:33N 42°11' W 070°32'9 9.5
2016-Jul-15 17:33N 42°18' W 070°41'9 8.8
2016-Jul-15 16:33N 42°23' W 070°50'8 8.4
2016-Jul-15 15:33N 42°21' W 071°02'3 1.4
2016-Jul-15 13:28N 42°24' W 071°01'0 0.0
2016-Jul-15 12:31N 42°24' W 071°01'0 0.0
2016-Jul-15 11:31N 42°24' W 071°01'0 0.0
2016-Jul-15 10:25N 42°24' W 071°01'0 0.0
2016-Jul-15 09:25N 42°24' W 071°01'0 0.0
2016-Jul-15 08:25N 42°24' W 071°01'0 0.0
2016-Jul-15 07:31N 42°24' W 071°01'0 0.0
2016-Jul-15 06:13N 42°24' W 071°01'0 0.0
2016-Jul-15 05:25N 42°24' W 071°01'0 0.0
2016-Jul-15 04:33N 42°24' W 071°01'0 0.0
2016-Jul-15 03:32N 42°24' W 071°01'0 0.0
2016-Jul-15 02:33N 42°24' W 071°01'0 0.0
2016-Jul-15 01:33N 42°24' W 071°01'0 0.0
2016-Jul-15 00:33N 42°24' W 071°01'0 0.2
2016-Jul-14 23:33N 42°24' W 071°01'3 2.9
2016-Jul-14 22:33N 42°21' W 071°01'7 7.4
2016-Jul-14 21:33N 42°24' W 070°52'8 8.1
2016-Jul-14 20:33N 42°28' W 070°43'  

Dump ship's entire track history